X  Schließen METAR Luftfahrt Wetterdaten        LGTS Thessaloniki Macedonia International
Temperatur
12°C Temperatur
6°C Taupunkt
67% Feuchtigkeit



Wind
3 M/S
6 MPS
9 KM/S
5 KTS



120°
OSO
Aktuelle Wetterlage

Mostly Clear Größtenteils klar
Luftdruck 1016 (hPa) - 30 (inHg)
Sichtweite 6 (Meile) - 10 (Km)
Flughafen
Flughafen Code LGTS

Position : Thessaloniki Macedonia International
Entfernung: 85 (Km)

Metar:
METAR LGTS 240250Z 12005KT 9999 FEW030 12/06 Q1016 NOSIG

Zeit: 24-02-2024 04:50 EET